This is the latest recevied weather packets stored in our database for station/object Aldingen. If no packets are shown the sender has not sent any weather packets the latest 10 day(s).
| Time | Temp. | Humidity | Pressure | Rain* | Wind** | Luminosity | Snow |
|---|---|---|---|---|---|---|---|
| 1777755729 | 12.78° C | 65% | 1015.7 hPa | 0 mm | - | - | - |
| 1777753930 | 13.89° C | 61% | 1015.6 hPa | 0 mm | - | - | - |
| 1777752130 | 15.56° C | 55% | 1015.7 hPa | 0 mm | - | - | - |
| 1777750335 | 16.67° C | 53% | 1015.7 hPa | 0 mm | - | - | - |
| 1777748537 | 16.11° C | 57% | 1015.6 hPa | 0 mm | - | - | - |
| 1777746730 | 19.44° C | 46% | 1015.2 hPa | 0 mm | - | - | - |
| 1777744931 | 21.11° C | 40% | 1015.1 hPa | 0 mm | - | - | - |
| 1777743130 | 22.78° C | 36% | 1015.2 hPa | 0 mm | - | - | - |
| 1777741330 | 22.78° C | 35% | 1015.4 hPa | 0 mm | - | - | - |
| 1777739530 | 23.33° C | 32% | 1015.7 hPa | 0 mm | - | - | - |
| 1777737733 | 23.33° C | 33% | 1016 hPa | 0 mm | - | - | - |
| 1777735930 | 23.33° C | 34% | 1016.2 hPa | 0 mm | - | - | - |
| 1777734130 | 23.89° C | 33% | 1016.5 hPa | 0 mm | - | - | - |
| 1777732330 | 24.44° C | 31% | 1017 hPa | 0 mm | - | - | - |
| 1777730530 | 23.33° C | 31% | 1017.4 hPa | 0 mm | - | - | - |
| 1777728731 | 22.78° C | 30% | 1017.8 hPa | 0 mm | - | - | - |
| 1777726930 | 23.33° C | 32% | 1018.2 hPa | 0 mm | - | - | - |
| 1777725131 | 21.11° C | 30% | 1020.1 hPa | 0 mm | - | - | - |
| 1777723330 | 21.11° C | 30% | 1020.1 hPa | 0 mm | - | - | - |
| 1777721531 | 21.11° C | 30% | 1020.1 hPa | 0 mm | - | - | - |
| 1777719730 | 21.11° C | 30% | 1020.1 hPa | 0 mm | - | - | - |
| 1777717930 | 21.67° C | 30% | 1020.1 hPa | 0 mm | - | - | - |
| 1777716131 | 21.11° C | 31% | 1020.6 hPa | 0 mm | - | - | - |
| 1777714331 | 20° C | 34% | 1020.9 hPa | 0 mm | - | - | - |
| 1777712530 | 18.89° C | 44% | 1021.1 hPa | 0 mm | - | - | - |
* Rain since midnight (hover to see other rain measurements)
** Current wind speed in m/s (hover to see current wind gust speed)